Lumsden, Canada
Current Conditions -  °F | °C
As of 9:41 AM on Friday 28 Nov 2014 (Local Time) from CYQR Reporting Station
Light Snow Light Snow  
Wind Chill: -10°   Ceiling: 3300
Heat Index: 10°   Visibility: 2mi
Dew Point:   Wind: 23mph
Humidity: 92%   Direction: 120°ESE
Pressure: 29.66"   Gusts: 29mph
Location:  50.64°N, 104.87°W
Report Text: CYQR 281541Z 12020G25KT 2SM -SN BLSN OVC033 M12/M13 A2966 RMK SC8 PRESFR SLP083
Loading
Personal Weather Stations






























Interactive Weather Map New forecast layout! Learn more

10-Day Weather Forecast

Advertisements
Track Severe Weather on mobile